22.3°F
Current conditions from King Hill
Updated every 5 minutes
 
  Friday November 28, 2014

Station Historical Data
Daily Summary for July 01, 2012 Units:  Both    English   Metric
« Previous Day
Next Day »
Daily Weekly Monthly Yearly Custom
  High: Low: Average:
Temperature: 79.1 °F /  26.2 °C 59.6 °F /  15.3 °C 68.8 °F /  20.4 °C
Dew Point: 66.4 °F /  19.1 °C 56.7 °F /  13.7 °C 61 °F /  16.1 °C
Humidity: 96% 56% 78%
Wind Speed: 8.0mph /  12.9km/h - 2.2mph /  3.5km/h
Wind Gust: 14.0mph /  22.5km/h - -
Wind- - West
Pressure: 29.82 in /  1009.7 hPa 29.64 in /  1003.6 hPa -
Precipitation: 0.00 in /  0 mm    
Historical Graphs
 
 
Tabular Data for July 01, 2012
Time Temperature Dew Point Pressure Wind Wind Speed Wind Gust Humidity Daily Rainfall
00:04 66.0 °F /  18.9 °C 59.3 °F /  15.2 °C 29.64in /  1003.6hPa Calm     79% 0.00in /  0mm
00:14 64.9 °F /  18.3 °C 58.6 °F /  14.8 °C 29.64in /  1003.6hPa Calm     80% 0.00in /  0mm
00:19 64.5 °F /  18.1 °C 58.5 °F /  14.7 °C 29.64in /  1003.6hPa Calm     81% 0.00in /  0mm
00:24 64.1 °F /  17.8 °C 58.5 °F /  14.7 °C 29.64in /  1003.6hPa Calm     82% 0.00in /  0mm
00:29 63.6 °F /  17.6 °C 58.0 °F /  14.4 °C 29.64in /  1003.6hPa Calm     82% 0.00in /  0mm
00:34 63.2 °F /  17.3 °C 58.0 °F /  14.4 °C 29.64in /  1003.6hPa Calm     83% 0.00in /  0mm
00:39 62.8 °F /  17.1 °C 57.9 °F /  14.4 °C 29.64in /  1003.6hPa Calm     84% 0.00in /  0mm
00:44 62.5 °F /  16.9 °C 57.6 °F /  14.2 °C 29.64in /  1003.6hPa Calm     84% 0.00in /  0mm
00:49 62.2 °F /  16.8 °C 57.6 °F /  14.2 °C 29.64in /  1003.6hPa Calm     85% 0.00in /  0mm
00:54 62.1 °F /  16.7 °C 57.5 °F /  14.2 °C 29.64in /  1003.6hPa Calm     85% 0.00in /  0mm
00:59 61.9 °F /  16.6 °C 57.7 °F /  14.3 °C 29.64in /  1003.6hPa Calm     86% 0.00in /  0mm
01:04 61.8 °F /  16.6 °C 57.6 °F /  14.2 °C 29.64in /  1003.6hPa Calm     86% 0.00in /  0mm
01:09 61.6 °F /  16.4 °C 57.4 °F /  14.1 °C 29.64in /  1003.6hPa Calm     86% 0.00in /  0mm
01:19 61.4 °F /  16.3 °C 57.5 °F /  14.2 °C 29.64in /  1003.6hPa Calm     87% 0.00in /  0mm
01:24 61.5 °F /  16.4 °C 57.6 °F /  14.2 °C 29.64in /  1003.6hPa Calm     87% 0.00in /  0mm
01:29 61.5 °F /  16.4 °C 57.9 °F /  14.4 °C 29.64in /  1003.6hPa Calm     88% 0.00in /  0mm
01:34 61.4 °F /  16.3 °C 57.8 °F /  14.3 °C 29.64in /  1003.6hPa Calm     88% 0.00in /  0mm
01:39 61.2 °F /  16.2 °C 57.3 °F /  14.1 °C 29.64in /  1003.6hPa Calm     87% 0.00in /  0mm
01:44 61.0 °F /  16.1 °C 57.4 °F /  14.1 °C 29.64in /  1003.6hPa Calm     88% 0.00in /  0mm
01:49 60.8 °F /  16 °C 57.2 °F /  14 °C 29.64in /  1003.6hPa Calm     88% 0.00in /  0mm
01:54 60.7 °F /  15.9 °C 57.1 °F /  13.9 °C 29.64in /  1003.6hPa Calm     88% 0.00in /  0mm
01:59 60.6 °F /  15.9 °C 57.0 °F /  13.9 °C 29.64in /  1003.6hPa Calm     88% 0.00in /  0mm
02:04 60.4 °F /  15.8 °C 56.8 °F /  13.8 °C 29.64in /  1003.6hPa Calm     88% 0.00in /  0mm
02:09 60.5 °F /  15.8 °C 57.2 °F /  14 °C 29.64in /  1003.6hPa Calm     89% 0.00in /  0mm
02:14 60.8 °F /  16 °C 57.5 °F /  14.2 °C 29.64in /  1003.6hPa Calm   1.0mph /  1.6km/h 89% 0.00in /  0mm
02:19 60.7 °F /  15.9 °C 57.4 °F /  14.1 °C 29.64in /  1003.6hPa Calm   1.0mph /  1.6km/h 89% 0.00in /  0mm
02:24 60.4 °F /  15.8 °C 57.1 °F /  13.9 °C 29.64in /  1003.6hPa Calm   1.0mph /  1.6km/h 89% 0.00in /  0mm
02:29 60.2 °F /  15.7 °C 56.9 °F /  13.8 °C 29.64in /  1003.6hPa Calm     89% 0.00in /  0mm
02:34 60.1 °F /  15.6 °C 56.8 °F /  13.8 °C 29.65in /  1003.9hPa Calm     89% 0.00in /  0mm
02:39 60.3 °F /  15.7 °C 57.4 °F /  14.1 °C 29.65in /  1003.9hPa Calm     90% 0.00in /  0mm
02:44 60.3 °F /  15.7 °C 57.4 °F /  14.1 °C 29.65in /  1003.9hPa Calm     90% 0.00in /  0mm
02:49 60.2 °F /  15.7 °C 57.3 °F /  14.1 °C 29.65in /  1003.9hPa Calm   1.0mph /  1.6km/h 90% 0.00in /  0mm
02:54 60.0 °F /  15.6 °C 57.1 °F /  13.9 °C 29.65in /  1003.9hPa Calm   1.0mph /  1.6km/h 90% 0.00in /  0mm
02:59 59.9 °F /  15.5 °C 57.0 °F /  13.9 °C 29.65in /  1003.9hPa Calm     90% 0.00in /  0mm
03:04 59.8 °F /  15.4 °C 56.9 °F /  13.8 °C 29.65in /  1003.9hPa Calm     90% 0.00in /  0mm
03:09 59.7 °F /  15.4 °C 56.8 °F /  13.8 °C 29.65in /  1003.9hPa Calm     90% 0.00in /  0mm
03:14 59.6 °F /  15.3 °C 56.7 °F /  13.7 °C 29.65in /  1003.9hPa Calm     90% 0.00in /  0mm
03:19 59.6 °F /  15.3 °C 57.0 °F /  13.9 °C 29.65in /  1003.9hPa Calm     91% 0.00in /  0mm
03:24 59.7 °F /  15.4 °C 57.1 °F /  13.9 °C 29.65in /  1003.9hPa Calm     91% 0.00in /  0mm
03:29 59.8 °F /  15.4 °C 57.2 °F /  14 °C 29.65in /  1003.9hPa Calm     91% 0.00in /  0mm
03:34 59.8 °F /  15.4 °C 57.5 °F /  14.2 °C 29.65in /  1003.9hPa Calm     92% 0.00in /  0mm
03:39 59.7 °F /  15.4 °C 57.4 °F /  14.1 °C 29.65in /  1003.9hPa Calm     92% 0.00in /  0mm
03:44 59.8 °F /  15.4 °C 57.5 °F /  14.2 °C 29.66in /  1004.3hPa Calm     92% 0.00in /  0mm
03:54 59.9 °F /  15.5 °C 57.6 °F /  14.2 °C 29.66in /  1004.3hPa Calm     92% 0.00in /  0mm
03:59 59.9 °F /  15.5 °C 57.6 °F /  14.2 °C 29.66in /  1004.3hPa Calm     92% 0.00in /  0mm
04:04 59.9 °F /  15.5 °C 57.6 °F /  14.2 °C 29.66in /  1004.3hPa Calm     92% 0.00in /  0mm
04:09 60.0 °F /  15.6 °C 58.0 °F /  14.4 °C 29.67in /  1004.6hPa Calm     93% 0.00in /  0mm
04:14 60.2 °F /  15.7 °C 58.2 °F /  14.6 °C 29.67in /  1004.6hPa Calm     93% 0.00in /  0mm
04:19 60.5 °F /  15.8 °C 58.8 °F /  14.9 °C 29.67in /  1004.6hPa Calm     94% 0.00in /  0mm
04:29 60.8 °F /  16 °C 59.1 °F /  15.1 °C 29.67in /  1004.6hPa Calm     94% 0.00in /  0mm
04:34 61.0 °F /  16.1 °C 59.3 °F /  15.2 °C 29.67in /  1004.6hPa Calm     94% 0.00in /  0mm
04:39 61.2 °F /  16.2 °C 59.5 °F /  15.3 °C 29.67in /  1004.6hPa Calm   1.0mph /  1.6km/h 94% 0.00in /  0mm
04:44 61.3 °F /  16.3 °C 59.6 °F /  15.3 °C 29.67in /  1004.6hPa Calm   1.0mph /  1.6km/h 94% 0.00in /  0mm
04:49 61.2 °F /  16.2 °C 59.5 °F /  15.3 °C 29.67in /  1004.6hPa Calm   1.0mph /  1.6km/h 94% 0.00in /  0mm
04:54 61.0 °F /  16.1 °C 59.3 °F /  15.2 °C 29.67in /  1004.6hPa Calm     94% 0.00in /  0mm
04:59 60.8 °F /  16 °C 59.1 °F /  15.1 °C 29.67in /  1004.6hPa Calm     94% 0.00in /  0mm
05:04 60.5 °F /  15.8 °C 58.8 °F /  14.9 °C 29.67in /  1004.6hPa Calm     94% 0.00in /  0mm
05:09 60.4 °F /  15.8 °C 58.7 °F /  14.8 °C 29.68in /  1005hPa Calm     94% 0.00in /  0mm
05:14 60.4 °F /  15.8 °C 58.7 °F /  14.8 °C 29.68in /  1005hPa Calm     94% 0.00in /  0mm
05:19 60.5 °F /  15.8 °C 58.8 °F /  14.9 °C 29.68in /  1005hPa Calm     94% 0.00in /  0mm
05:24 60.4 °F /  15.8 °C 58.7 °F /  14.8 °C 29.68in /  1005hPa Calm     94% 0.00in /  0mm
05:29 60.3 °F /  15.7 °C 58.6 °F /  14.8 °C 29.68in /  1005hPa Calm     94% 0.00in /  0mm
05:34 60.3 °F /  15.7 °C 58.6 °F /  14.8 °C 29.68in /  1005hPa Calm     94% 0.00in /  0mm
05:39 60.3 °F /  15.7 °C 58.6 °F /  14.8 °C 29.68in /  1005hPa Calm     94% 0.00in /  0mm
05:44 60.2 °F /  15.7 °C 58.5 °F /  14.7 °C 29.68in /  1005hPa Calm     94% 0.00in /  0mm
05:49 60.5 °F /  15.8 °C 58.8 °F /  14.9 °C 29.69in /  1005.3hPa Calm     94% 0.00in /  0mm
05:54 60.9 °F /  16.1 °C 59.5 °F /  15.3 °C 29.69in /  1005.3hPa Calm     95% 0.00in /  0mm
05:59 60.9 °F /  16.1 °C 59.5 °F /  15.3 °C 29.69in /  1005.3hPa Calm     95% 0.00in /  0mm
06:04 60.9 °F /  16.1 °C 59.2 °F /  15.1 °C 29.69in /  1005.3hPa Calm     94% 0.00in /  0mm
06:09 61.0 °F /  16.1 °C 59.6 °F /  15.3 °C 29.69in /  1005.3hPa Calm     95% 0.00in /  0mm
06:14 61.2 °F /  16.2 °C 59.8 °F /  15.4 °C 29.69in /  1005.3hPa Calm     95% 0.00in /  0mm
06:19 61.6 °F /  16.4 °C 60.2 °F /  15.7 °C 29.69in /  1005.3hPa Calm     95% 0.00in /  0mm
06:24 61.8 °F /  16.6 °C 60.4 °F /  15.8 °C 29.70in /  1005.6hPa Calm     95% 0.00in /  0mm
06:29 62.0 °F /  16.7 °C 60.6 °F /  15.9 °C 29.70in /  1005.6hPa Calm     95% 0.00in /  0mm
06:34 62.4 °F /  16.9 °C 60.9 °F /  16.1 °C 29.70in /  1005.6hPa Calm     95% 0.00in /  0mm
06:39 62.7 °F /  17.1 °C 61.2 °F /  16.2 °C 29.70in /  1005.6hPa Calm     95% 0.00in /  0mm
06:44 62.9 °F /  17.2 °C 61.4 °F /  16.3 °C 29.71in /  1006hPa Calm     95% 0.00in /  0mm
06:49 63.1 °F /  17.3 °C 61.6 °F /  16.4 °C 29.71in /  1006hPa Calm     95% 0.00in /  0mm
06:54 63.3 °F /  17.4 °C 61.8 °F /  16.6 °C 29.71in /  1006hPa Calm     95% 0.00in /  0mm
06:59 63.6 °F /  17.6 °C 62.1 °F /  16.7 °C 29.71in /  1006hPa Calm     95% 0.00in /  0mm
07:04 64.2 °F /  17.9 °C 62.7 °F /  17.1 °C 29.71in /  1006hPa Calm     95% 0.00in /  0mm
07:09 64.8 °F /  18.2 °C 63.6 °F /  17.6 °C 29.71in /  1006hPa Calm     96% 0.00in /  0mm
07:14 65.3 °F /  18.5 °C 64.1 °F /  17.8 °C 29.72in /  1006.3hPa Calm     96% 0.00in /  0mm
07:19 65.9 °F /  18.8 °C 64.7 °F /  18.2 °C 29.72in /  1006.3hPa Calm     96% 0.00in /  0mm
07:24 66.2 °F /  19 °C 65.0 °F /  18.3 °C 29.72in /  1006.3hPa Calm     96% 0.00in /  0mm
07:29 66.3 °F /  19.1 °C 64.8 °F /  18.2 °C 29.72in /  1006.3hPa WNW 1.0mph /  1.6km/h 5.0mph /  8km/h 95% 0.00in /  0mm
07:34 66.1 °F /  18.9 °C 64.3 °F /  17.9 °C 29.73in /  1006.7hPa NW 4.0mph /  6.4km/h 6.0mph /  9.7km/h 94% 0.00in /  0mm
07:39 66.0 °F /  18.9 °C 63.9 °F /  17.7 °C 29.73in /  1006.7hPa WNW 1.0mph /  1.6km/h 6.0mph /  9.7km/h 93% 0.00in /  0mm
07:44 66.5 °F /  19.2 °C 64.4 °F /  18 °C 29.73in /  1006.7hPa Calm   6.0mph /  9.7km/h 93% 0.00in /  0mm
07:49 66.6 °F /  19.2 °C 64.2 °F /  17.9 °C 29.74in /  1007hPa West 1.0mph /  1.6km/h 7.0mph /  11.3km/h 92% 0.00in /  0mm
07:54 67.1 °F /  19.5 °C 64.7 °F /  18.2 °C 29.74in /  1007hPa Calm   7.0mph /  11.3km/h 92% 0.00in /  0mm
07:59 67.3 °F /  19.6 °C 64.3 °F /  17.9 °C 29.73in /  1006.7hPa West 1.0mph /  1.6km/h 4.0mph /  6.4km/h 90% 0.00in /  0mm
08:04 67.7 °F /  19.8 °C 64.3 °F /  17.9 °C 29.73in /  1006.7hPa Calm   4.0mph /  6.4km/h 89% 0.00in /  0mm
08:09 68.2 °F /  20.1 °C 64.5 °F /  18.1 °C 29.73in /  1006.7hPa Calm   1.0mph /  1.6km/h 88% 0.00in /  0mm
08:14 68.9 °F /  20.5 °C 64.9 °F /  18.3 °C 29.73in /  1006.7hPa Calm   3.0mph /  4.8km/h 87% 0.00in /  0mm
08:19 69.2 °F /  20.7 °C 64.5 °F /  18.1 °C 29.74in /  1007hPa Calm   3.0mph /  4.8km/h 85% 0.00in /  0mm
08:24 69.4 °F /  20.8 °C 64.7 °F /  18.2 °C 29.74in /  1007hPa Calm   3.0mph /  4.8km/h 85% 0.00in /  0mm
08:29 69.7 °F /  20.9 °C 64.3 °F /  17.9 °C 29.74in /  1007hPa Calm   3.0mph /  4.8km/h 83% 0.00in /  0mm
08:34 69.5 °F /  20.8 °C 63.8 °F /  17.7 °C 29.74in /  1007hPa Calm   1.0mph /  1.6km/h 82% 0.00in /  0mm
08:39 69.5 °F /  20.8 °C 64.1 °F /  17.8 °C 29.74in /  1007hPa Calm   1.0mph /  1.6km/h 83% 0.00in /  0mm
08:44 69.7 °F /  20.9 °C 64.0 °F /  17.8 °C 29.74in /  1007hPa Calm   5.0mph /  8km/h 82% 0.00in /  0mm
08:49 70.2 °F /  21.2 °C 64.5 °F /  18.1 °C 29.74in /  1007hPa NNW 1.0mph /  1.6km/h 5.0mph /  8km/h 82% 0.00in /  0mm
08:54 70.0 °F /  21.1 °C 63.6 °F /  17.6 °C 29.74in /  1007hPa Calm   4.0mph /  6.4km/h 80% 0.00in /  0mm
08:59 69.7 °F /  20.9 °C 63.6 °F /  17.6 °C 29.75in /  1007.3hPa Calm   4.0mph /  6.4km/h 81% 0.00in /  0mm
09:04 69.5 °F /  20.8 °C 63.8 °F /  17.7 °C 29.75in /  1007.3hPa WNW 2.0mph /  3.2km/h 5.0mph /  8km/h 82% 0.00in /  0mm
09:09 69.2 °F /  20.7 °C 62.8 °F /  17.1 °C 29.75in /  1007.3hPa NW 3.0mph /  4.8km/h 6.0mph /  9.7km/h 80% 0.00in /  0mm
09:14 69.1 °F /  20.6 °C 63.4 °F /  17.4 °C 29.75in /  1007.3hPa Calm   6.0mph /  9.7km/h 82% 0.00in /  0mm
09:19 69.2 °F /  20.7 °C 63.1 °F /  17.3 °C 29.75in /  1007.3hPa Calm   3.0mph /  4.8km/h 81% 0.00in /  0mm
09:24 69.1 °F /  20.6 °C 63.0 °F /  17.2 °C 29.75in /  1007.3hPa NW 3.0mph /  4.8km/h 5.0mph /  8km/h 81% 0.00in /  0mm
09:29 68.9 °F /  20.5 °C 63.2 °F /  17.3 °C 29.75in /  1007.3hPa NW 2.0mph /  3.2km/h 5.0mph /  8km/h 82% 0.00in /  0mm
09:34 68.7 °F /  20.4 °C 62.6 °F /  17 °C 29.75in /  1007.3hPa NW 2.0mph /  3.2km/h 7.0mph /  11.3km/h 81% 0.00in /  0mm
09:39 68.6 °F /  20.3 °C 62.9 °F /  17.2 °C 29.75in /  1007.3hPa NW 3.0mph /  4.8km/h 7.0mph /  11.3km/h 82% 0.00in /  0mm
09:44 69.4 °F /  20.8 °C 63.7 °F /  17.6 °C 29.75in /  1007.3hPa Calm   6.0mph /  9.7km/h 82% 0.00in /  0mm
09:49 70.5 °F /  21.4 °C 64.7 °F /  18.2 °C 29.75in /  1007.3hPa WNW 2.0mph /  3.2km/h 6.0mph /  9.7km/h 82% 0.00in /  0mm
09:54 71.0 °F /  21.7 °C 63.8 °F /  17.7 °C 29.75in /  1007.3hPa NNE 1.0mph /  1.6km/h 5.0mph /  8km/h 78% 0.00in /  0mm
09:59 71.6 °F /  22 °C 62.1 °F /  16.7 °C 29.75in /  1007.3hPa Calm   5.0mph /  8km/h 72% 0.00in /  0mm
10:04 72.2 °F /  22.3 °C 63.5 °F /  17.5 °C 29.75in /  1007.3hPa Calm   3.0mph /  4.8km/h 74% 0.00in /  0mm
10:09 72.8 °F /  22.7 °C 64.4 °F /  18 °C 29.75in /  1007.3hPa Calm   1.0mph /  1.6km/h 75% 0.00in /  0mm
10:14 73.3 °F /  22.9 °C 62.9 °F /  17.2 °C 29.75in /  1007.3hPa NNE 2.0mph /  3.2km/h 6.0mph /  9.7km/h 70% 0.00in /  0mm
10:19 72.9 °F /  22.7 °C 62.6 °F /  17 °C 29.75in /  1007.3hPa Calm   6.0mph /  9.7km/h 70% 0.00in /  0mm
10:24 72.4 °F /  22.4 °C 62.5 °F /  16.9 °C 29.76in /  1007.7hPa Calm   3.0mph /  4.8km/h 71% 0.00in /  0mm
10:29 71.9 °F /  22.2 °C 62.4 °F /  16.9 °C 29.76in /  1007.7hPa Calm     72% 0.00in /  0mm
10:34 71.5 °F /  21.9 °C 62.4 °F /  16.9 °C 29.76in /  1007.7hPa Calm     73% 0.00in /  0mm
10:39 70.6 °F /  21.4 °C 62.7 °F /  17.1 °C 29.76in /  1007.7hPa Calm   1.0mph /  1.6km/h 76% 0.00in /  0mm
10:44 69.6 °F /  20.9 °C 62.1 °F /  16.7 °C 29.76in /  1007.7hPa Calm   4.0mph /  6.4km/h 77% 0.00in /  0mm
10:49 69.1 °F /  20.6 °C 62.3 °F /  16.8 °C 29.76in /  1007.7hPa Calm   4.0mph /  6.4km/h 79% 0.00in /  0mm
10:54 69.0 °F /  20.6 °C 61.9 °F /  16.6 °C 29.76in /  1007.7hPa Calm   3.0mph /  4.8km/h 78% 0.00in /  0mm
10:59 69.4 °F /  20.8 °C 62.6 °F /  17 °C 29.76in /  1007.7hPa Calm   3.0mph /  4.8km/h 79% 0.00in /  0mm
11:04 70.1 °F /  21.2 °C 62.6 °F /  17 °C 29.75in /  1007.3hPa Calm   1.0mph /  1.6km/h 77% 0.00in /  0mm
11:09 71.0 °F /  21.7 °C 63.4 °F /  17.4 °C 29.76in /  1007.7hPa Calm   3.0mph /  4.8km/h 77% 0.00in /  0mm
11:14 71.9 °F /  22.2 °C 63.2 °F /  17.3 °C 29.76in /  1007.7hPa Calm   3.0mph /  4.8km/h 74% 0.00in /  0mm
11:19 72.8 °F /  22.7 °C 62.0 °F /  16.7 °C 29.76in /  1007.7hPa Calm   1.0mph /  1.6km/h 69% 0.00in /  0mm
11:24 73.9 °F /  23.3 °C 65.5 °F /  18.6 °C 29.76in /  1007.7hPa Calm   1.0mph /  1.6km/h 75% 0.00in /  0mm
11:29 74.3 °F /  23.5 °C 63.9 °F /  17.7 °C 29.76in /  1007.7hPa NW 1.0mph /  1.6km/h 5.0mph /  8km/h 70% 0.00in /  0mm
11:34 74.5 °F /  23.6 °C 64.1 °F /  17.8 °C 29.76in /  1007.7hPa Calm   5.0mph /  8km/h 70% 0.00in /  0mm
11:39 74.9 °F /  23.8 °C 64.9 °F /  18.3 °C 29.76in /  1007.7hPa Calm   3.0mph /  4.8km/h 71% 0.00in /  0mm
11:44 75.0 °F /  23.9 °C 61.6 °F /  16.4 °C 29.76in /  1007.7hPa WNW 4.0mph /  6.4km/h 6.0mph /  9.7km/h 63% 0.00in /  0mm
11:49 74.7 °F /  23.7 °C 62.6 °F /  17 °C 29.76in /  1007.7hPa Calm   6.0mph /  9.7km/h 66% 0.00in /  0mm
11:54 74.2 °F /  23.4 °C 62.1 °F /  16.7 °C 29.76in /  1007.7hPa NW 2.0mph /  3.2km/h 8.0mph /  12.9km/h 66% 0.00in /  0mm
11:59 74.3 °F /  23.5 °C 60.9 °F /  16.1 °C 29.76in /  1007.7hPa Calm   8.0mph /  12.9km/h 63% 0.00in /  0mm
12:04 74.7 °F /  23.7 °C 63.0 °F /  17.2 °C 29.76in /  1007.7hPa Calm   1.0mph /  1.6km/h 67% 0.00in /  0mm
12:09 75.3 °F /  24.1 °C 62.7 °F /  17.1 °C 29.76in /  1007.7hPa WNW 3.0mph /  4.8km/h 6.0mph /  9.7km/h 65% 0.00in /  0mm
12:14 75.5 °F /  24.2 °C 63.8 °F /  17.7 °C 29.76in /  1007.7hPa WNW 4.0mph /  6.4km/h 8.0mph /  12.9km/h 67% 0.00in /  0mm
12:19 75.3 °F /  24.1 °C 64.0 °F /  17.8 °C 29.76in /  1007.7hPa WNW 1.0mph /  1.6km/h 8.0mph /  12.9km/h 68% 0.00in /  0mm
12:24 75.1 °F /  23.9 °C 63.8 °F /  17.7 °C 29.76in /  1007.7hPa NNE 1.0mph /  1.6km/h 8.0mph /  12.9km/h 68% 0.00in /  0mm
12:29 75.2 °F /  24 °C 63.5 °F /  17.5 °C 29.77in /  1008hPa NE 1.0mph /  1.6km/h 5.0mph /  8km/h 67% 0.00in /  0mm
12:34 75.5 °F /  24.2 °C 64.6 °F /  18.1 °C 29.77in /  1008hPa Calm   5.0mph /  8km/h 69% 0.00in /  0mm
12:39 76.3 °F /  24.6 °C 65.8 °F /  18.8 °C 29.77in /  1008hPa Calm   1.0mph /  1.6km/h 70% 0.00in /  0mm
12:44 76.9 °F /  24.9 °C 66.0 °F /  18.9 °C 29.77in /  1008hPa NW 1.0mph /  1.6km/h 5.0mph /  8km/h 69% 0.00in /  0mm
12:49 76.8 °F /  24.9 °C 63.7 °F /  17.6 °C 29.77in /  1008hPa West 4.0mph /  6.4km/h 9.0mph /  14.5km/h 64% 0.00in /  0mm
12:54 76.8 °F /  24.9 °C 65.5 °F /  18.6 °C 29.77in /  1008hPa NW 2.0mph /  3.2km/h 9.0mph /  14.5km/h 68% 0.00in /  0mm
12:59 76.8 °F /  24.9 °C 64.2 °F /  17.9 °C 29.76in /  1007.7hPa Calm   7.0mph /  11.3km/h 65% 0.00in /  0mm
13:04 77.2 °F /  25.1 °C 65.0 °F /  18.3 °C 29.77in /  1008hPa WNW 2.0mph /  3.2km/h 9.0mph /  14.5km/h 66% 0.00in /  0mm
13:09 77.3 °F /  25.2 °C 65.5 °F /  18.6 °C 29.76in /  1007.7hPa NW 2.0mph /  3.2km/h 9.0mph /  14.5km/h 67% 0.00in /  0mm
13:14 77.1 °F /  25.1 °C 64.9 °F /  18.3 °C 29.76in /  1007.7hPa Calm   8.0mph /  12.9km/h 66% 0.00in /  0mm
13:19 77.0 °F /  25 °C 64.3 °F /  17.9 °C 29.76in /  1007.7hPa Calm   1.0mph /  1.6km/h 65% 0.00in /  0mm
13:24 77.6 °F /  25.3 °C 65.4 °F /  18.6 °C 29.76in /  1007.7hPa NW 1.0mph /  1.6km/h 6.0mph /  9.7km/h 66% 0.00in /  0mm
13:29 78.0 °F /  25.6 °C 64.9 °F /  18.3 °C 29.76in /  1007.7hPa Calm   6.0mph /  9.7km/h 64% 0.00in /  0mm
13:34 78.7 °F /  25.9 °C 66.4 °F /  19.1 °C 29.76in /  1007.7hPa NW 2.0mph /  3.2km/h 7.0mph /  11.3km/h 66% 0.00in /  0mm
13:39 78.5 °F /  25.8 °C 64.9 °F /  18.3 °C 29.76in /  1007.7hPa NW 4.0mph /  6.4km/h 7.0mph /  11.3km/h 63% 0.00in /  0mm
13:44 78.7 °F /  25.9 °C 63.7 °F /  17.6 °C 29.76in /  1007.7hPa NW 3.0mph /  4.8km/h 7.0mph /  11.3km/h 60% 0.00in /  0mm
13:49 78.7 °F /  25.9 °C 63.7 °F /  17.6 °C 29.76in /  1007.7hPa WNW 2.0mph /  3.2km/h 6.0mph /  9.7km/h 60% 0.00in /  0mm
13:54 78.4 °F /  25.8 °C 64.8 °F /  18.2 °C 29.77in /  1008hPa WNW 4.0mph /  6.4km/h 11.0mph /  17.7km/h 63% 0.00in /  0mm
13:59 77.9 °F /  25.5 °C 64.3 °F /  17.9 °C 29.77in /  1008hPa WNW 4.0mph /  6.4km/h 12.0mph /  19.3km/h 63% 0.00in /  0mm
14:04 78.1 °F /  25.6 °C 63.6 °F /  17.6 °C 29.77in /  1008hPa NW 3.0mph /  4.8km/h 12.0mph /  19.3km/h 61% 0.00in /  0mm
14:09 78.2 °F /  25.7 °C 64.1 °F /  17.8 °C 29.77in /  1008hPa WNW 4.0mph /  6.4km/h 8.0mph /  12.9km/h 62% 0.00in /  0mm
14:14 78.4 °F /  25.8 °C 63.9 °F /  17.7 °C 29.77in /  1008hPa NW 4.0mph /  6.4km/h 10.0mph /  16.1km/h 61% 0.00in /  0mm
14:19 78.2 °F /  25.7 °C 63.2 °F /  17.3 °C 29.77in /  1008hPa WNW 3.0mph /  4.8km/h 10.0mph /  16.1km/h 60% 0.00in /  0mm
14:24 78.7 °F /  25.9 °C 65.1 °F /  18.4 °C 29.77in /  1008hPa NNW 1.0mph /  1.6km/h 7.0mph /  11.3km/h 63% 0.00in /  0mm
14:29 78.2 °F /  25.7 °C 63.2 °F /  17.3 °C 29.76in /  1007.7hPa WNW 7.0mph /  11.3km/h 11.0mph /  17.7km/h 60% 0.00in /  0mm
14:34 78.0 °F /  25.6 °C 63.5 °F /  17.5 °C 29.76in /  1007.7hPa North 2.0mph /  3.2km/h 11.0mph /  17.7km/h 61% 0.00in /  0mm
14:39 78.2 °F /  25.7 °C 65.9 °F /  18.8 °C 29.77in /  1008hPa NW 1.0mph /  1.6km/h 12.0mph /  19.3km/h 66% 0.00in /  0mm
14:44 78.1 °F /  25.6 °C 64.5 °F /  18.1 °C 29.77in /  1008hPa WNW 5.0mph /  8km/h 14.0mph /  22.5km/h 63% 0.00in /  0mm
14:49 78.1 °F /  25.6 °C 63.6 °F /  17.6 °C 29.77in /  1008hPa Calm   14.0mph /  22.5km/h 61% 0.00in /  0mm
14:54 78.4 °F /  25.8 °C 62.4 °F /  16.9 °C 29.77in /  1008hPa NW 2.0mph /  3.2km/h 12.0mph /  19.3km/h 58% 0.00in /  0mm
14:59 77.7 °F /  25.4 °C 62.7 °F /  17.1 °C 29.77in /  1008hPa WNW 1.0mph /  1.6km/h 7.0mph /  11.3km/h 60% 0.00in /  0mm
15:04 78.0 °F /  25.6 °C 64.9 °F /  18.3 °C 29.77in /  1008hPa NW 1.0mph /  1.6km/h 6.0mph /  9.7km/h 64% 0.00in /  0mm
15:09 78.7 °F /  25.9 °C 65.5 °F /  18.6 °C 29.77in /  1008hPa WNW 3.0mph /  4.8km/h 8.0mph /  12.9km/h 64% 0.00in /  0mm
15:14 79.0 °F /  26.1 °C 64.4 °F /  18 °C 29.77in /  1008hPa NE 2.0mph /  3.2km/h 9.0mph /  14.5km/h 61% 0.00in /  0mm
15:19 79.0 °F /  26.1 °C 63.5 °F /  17.5 °C 29.77in /  1008hPa NW 4.0mph /  6.4km/h 9.0mph /  14.5km/h 59% 0.00in /  0mm
15:24 78.4 °F /  25.8 °C 62.4 °F /  16.9 °C 29.77in /  1008hPa WNW 6.0mph /  9.7km/h 11.0mph /  17.7km/h 58% 0.00in /  0mm
15:29 78.3 °F /  25.7 °C 62.3 °F /  16.8 °C 29.77in /  1008hPa WNW 8.0mph /  12.9km/h 13.0mph /  20.9km/h 58% 0.00in /  0mm
15:34 78.2 °F /  25.7 °C 63.7 °F /  17.6 °C 29.77in /  1008hPa NNE 1.0mph /  1.6km/h 13.0mph /  20.9km/h 61% 0.00in /  0mm
15:39 78.7 °F /  25.9 °C 65.5 °F /  18.6 °C 29.77in /  1008hPa WNW 3.0mph /  4.8km/h 7.0mph /  11.3km/h 64% 0.00in /  0mm
15:44 78.9 °F /  26.1 °C 63.4 °F /  17.4 °C 29.77in /  1008hPa North 1.0mph /  1.6km/h 6.0mph /  9.7km/h 59% 0.00in /  0mm
15:49 78.9 °F /  26.1 °C 63.4 °F /  17.4 °C 29.76in /  1007.7hPa NW 3.0mph /  4.8km/h 13.0mph /  20.9km/h 59% 0.00in /  0mm
15:54 79.0 °F /  26.1 °C 63.5 °F /  17.5 °C 29.76in /  1007.7hPa WNW 2.0mph /  3.2km/h 13.0mph /  20.9km/h 59% 0.00in /  0mm
15:59 79.1 °F /  26.2 °C 63.6 °F /  17.6 °C 29.77in /  1008hPa NW 3.0mph /  4.8km/h 12.0mph /  19.3km/h 59% 0.00in /  0mm
16:04 79.0 °F /  26.1 °C 62.5 °F /  16.9 °C 29.77in /  1008hPa NNW 3.0mph /  4.8km/h 12.0mph /  19.3km/h 57% 0.00in /  0mm
16:09 78.7 °F /  25.9 °C 62.7 °F /  17.1 °C 29.77in /  1008hPa WNW 1.0mph /  1.6km/h 11.0mph /  17.7km/h 58% 0.00in /  0mm
16:14 78.7 °F /  25.9 °C 64.1 °F /  17.8 °C 29.77in /  1008hPa NNW 1.0mph /  1.6km/h 10.0mph /  16.1km/h 61% 0.00in /  0mm
16:19 78.7 °F /  25.9 °C 65.5 °F /  18.6 °C 29.77in /  1008hPa WNW 1.0mph /  1.6km/h 8.0mph /  12.9km/h 64% 0.00in /  0mm
16:24 78.8 °F /  26 °C 64.2 °F /  17.9 °C 29.77in /  1008hPa WNW 2.0mph /  3.2km/h 7.0mph /  11.3km/h 61% 0.00in /  0mm
16:29 79.1 °F /  26.2 °C 64.5 °F /  18.1 °C 29.77in /  1008hPa WNW 1.0mph /  1.6km/h 7.0mph /  11.3km/h 61% 0.00in /  0mm
16:39 78.8 °F /  26 °C 63.3 °F /  17.4 °C 29.77in /  1008hPa WNW 3.0mph /  4.8km/h 7.0mph /  11.3km/h 59% 0.00in /  0mm
16:44 78.8 °F /  26 °C 63.3 °F /  17.4 °C 29.77in /  1008hPa WNW 2.0mph /  3.2km/h 8.0mph /  12.9km/h 59% 0.00in /  0mm
16:49 78.7 °F /  25.9 °C 64.1 °F /  17.8 °C 29.77in /  1008hPa WSW 1.0mph /  1.6km/h 11.0mph /  17.7km/h 61% 0.00in /  0mm
16:54 78.8 °F /  26 °C 63.8 °F /  17.7 °C 29.77in /  1008hPa NNW 2.0mph /  3.2km/h 11.0mph /  17.7km/h 60% 0.00in /  0mm
16:59 79.0 °F /  26.1 °C 64.4 °F /  18 °C 29.77in /  1008hPa Calm   9.0mph /  14.5km/h 61% 0.00in /  0mm
17:04 79.0 °F /  26.1 °C 63.5 °F /  17.5 °C 29.77in /  1008hPa NNE 1.0mph /  1.6km/h 9.0mph /  14.5km/h 59% 0.00in /  0mm
17:09 78.4 °F /  25.8 °C 61.4 °F /  16.3 °C 29.77in /  1008hPa NE 2.0mph /  3.2km/h 11.0mph /  17.7km/h 56% 0.00in /  0mm
17:14 78.0 °F /  25.6 °C 62.5 °F /  16.9 °C 29.78in /  1008.4hPa NNE 1.0mph /  1.6km/h 11.0mph /  17.7km/h 59% 0.00in /  0mm
17:19 78.3 °F /  25.7 °C 63.3 °F /  17.4 °C 29.78in /  1008.4hPa WNW 2.0mph /  3.2km/h 8.0mph /  12.9km/h 60% 0.00in /  0mm
17:24 78.5 °F /  25.8 °C 62.0 °F /  16.7 °C 29.77in /  1008hPa NNW 2.0mph /  3.2km/h 5.0mph /  8km/h 57% 0.00in /  0mm
17:29 77.9 °F /  25.5 °C 62.4 °F /  16.9 °C 29.77in /  1008hPa Calm   7.0mph /  11.3km/h 59% 0.00in /  0mm
17:34 77.9 °F /  25.5 °C 61.5 °F /  16.4 °C 29.78in /  1008.4hPa WNW 2.0mph /  3.2km/h 7.0mph /  11.3km/h 57% 0.00in /  0mm
17:39 77.7 °F /  25.4 °C 61.8 °F /  16.6 °C 29.77in /  1008hPa NW 2.0mph /  3.2km/h 6.0mph /  9.7km/h 58% 0.00in /  0mm
17:44 77.6 °F /  25.3 °C 61.7 °F /  16.5 °C 29.77in /  1008hPa NW 3.0mph /  4.8km/h 6.0mph /  9.7km/h 58% 0.00in /  0mm
17:49 77.3 °F /  25.2 °C 60.4 °F /  15.8 °C 29.77in /  1008hPa NNE 2.0mph /  3.2km/h 6.0mph /  9.7km/h 56% 0.00in /  0mm
17:54 77.1 °F /  25.1 °C 61.2 °F /  16.2 °C 29.77in /  1008hPa NNE 1.0mph /  1.6km/h 6.0mph /  9.7km/h 58% 0.00in /  0mm
17:59 76.9 °F /  24.9 °C 60.5 °F /  15.8 °C 29.77in /  1008hPa NNW 2.0mph /  3.2km/h 6.0mph /  9.7km/h 57% 0.00in /  0mm
18:04 77.1 °F /  25.1 °C 60.2 °F /  15.7 °C 29.77in /  1008hPa WNW 1.0mph /  1.6km/h 6.0mph /  9.7km/h 56% 0.00in /  0mm
18:09 77.3 °F /  25.2 °C 61.4 °F /  16.3 °C 29.77in /  1008hPa NW 1.0mph /  1.6km/h 5.0mph /  8km/h 58% 0.00in /  0mm
18:14 77.1 °F /  25.1 °C 61.2 °F /  16.2 °C 29.77in /  1008hPa WNW 1.0mph /  1.6km/h 6.0mph /  9.7km/h 58% 0.00in /  0mm
18:19 76.7 °F /  24.8 °C 60.3 °F /  15.7 °C 29.77in /  1008hPa NNE 2.0mph /  3.2km/h 7.0mph /  11.3km/h 57% 0.00in /  0mm
18:24 76.1 °F /  24.5 °C 60.8 °F /  16 °C 29.77in /  1008hPa West 1.0mph /  1.6km/h 7.0mph /  11.3km/h 59% 0.00in /  0mm
18:29 76.0 °F /  24.4 °C 60.7 °F /  15.9 °C 29.77in /  1008hPa ENE 1.0mph /  1.6km/h 7.0mph /  11.3km/h 59% 0.00in /  0mm
18:34 76.2 °F /  24.6 °C 61.8 °F /  16.6 °C 29.77in /  1008hPa Calm   3.0mph /  4.8km/h 61% 0.00in /  0mm
18:39 76.7 °F /  24.8 °C 60.8 °F /  16 °C 29.77in /  1008hPa NW 1.0mph /  1.6km/h 3.0mph /  4.8km/h 58% 0.00in /  0mm
18:44 77.1 °F /  25.1 °C 62.6 °F /  17 °C 29.77in /  1008hPa Calm   3.0mph /  4.8km/h 61% 0.00in /  0mm
18:49 77.1 °F /  25.1 °C 60.7 °F /  15.9 °C 29.77in /  1008hPa Calm   3.0mph /  4.8km/h 57% 0.00in /  0mm
18:54 76.7 °F /  24.8 °C 60.3 °F /  15.7 °C 29.77in /  1008hPa Calm   3.0mph /  4.8km/h 57% 0.00in /  0mm
18:59 76.6 °F /  24.8 °C 61.7 °F /  16.5 °C 29.78in /  1008.4hPa Calm   3.0mph /  4.8km/h 60% 0.00in /  0mm
19:04 76.4 °F /  24.7 °C 61.0 °F /  16.1 °C 29.78in /  1008.4hPa Calm   1.0mph /  1.6km/h 59% 0.00in /  0mm
19:09 76.0 °F /  24.4 °C 60.2 °F /  15.7 °C 29.77in /  1008hPa NNW 1.0mph /  1.6km/h 3.0mph /  4.8km/h 58% 0.00in /  0mm
19:14 75.5 °F /  24.2 °C 60.7 °F /  15.9 °C 29.77in /  1008hPa Calm   3.0mph /  4.8km/h 60% 0.00in /  0mm
19:19 75.0 °F /  23.9 °C 61.6 °F /  16.4 °C 29.77in /  1008hPa Calm   1.0mph /  1.6km/h 63% 0.00in /  0mm
19:24 74.7 °F /  23.7 °C 61.3 °F /  16.3 °C 29.78in /  1008.4hPa Calm     63% 0.00in /  0mm
19:29 73.9 °F /  23.3 °C 60.5 °F /  15.8 °C 29.77in /  1008hPa Calm   1.0mph /  1.6km/h 63% 0.00in /  0mm
19:34 73.1 °F /  22.8 °C 59.3 °F /  15.2 °C 29.77in /  1008hPa North 1.0mph /  1.6km/h 4.0mph /  6.4km/h 62% 0.00in /  0mm
19:39 72.4 °F /  22.4 °C 59.5 °F /  15.3 °C 29.77in /  1008hPa Calm   4.0mph /  6.4km/h 64% 0.00in /  0mm
19:44 71.9 °F /  22.2 °C 59.9 °F /  15.5 °C 29.77in /  1008hPa Calm   1.0mph /  1.6km/h 66% 0.00in /  0mm
19:49 71.7 °F /  22.1 °C 60.2 °F /  15.7 °C 29.77in /  1008hPa Calm   3.0mph /  4.8km/h 67% 0.00in /  0mm
19:54 71.8 °F /  22.1 °C 60.3 °F /  15.7 °C 29.77in /  1008hPa Calm   3.0mph /  4.8km/h 67% 0.00in /  0mm
19:59 71.8 °F /  22.1 °C 61.1 °F /  16.2 °C 29.77in /  1008hPa Calm   1.0mph /  1.6km/h 69% 0.00in /  0mm
20:04 71.7 °F /  22.1 °C 60.2 °F /  15.7 °C 29.77in /  1008hPa Calm   1.0mph /  1.6km/h 67% 0.00in /  0mm
20:09 71.2 °F /  21.8 °C 60.1 °F /  15.6 °C 29.77in /  1008hPa Calm     68% 0.00in /  0mm
20:14 70.5 °F /  21.4 °C 60.7 °F /  15.9 °C 29.77in /  1008hPa Calm     71% 0.00in /  0mm
20:19 69.6 °F /  20.9 °C 59.8 °F /  15.4 °C 29.77in /  1008hPa Calm     71% 0.00in /  0mm
20:24 68.5 °F /  20.3 °C 59.9 °F /  15.5 °C 29.77in /  1008hPa Calm     74% 0.00in /  0mm
20:29 67.8 °F /  19.9 °C 59.2 °F /  15.1 °C 29.77in /  1008hPa Calm     74% 0.00in /  0mm
20:34 66.8 °F /  19.3 °C 58.6 °F /  14.8 °C 29.78in /  1008.4hPa Calm     75% 0.00in /  0mm
20:39 65.9 °F /  18.8 °C 58.5 °F /  14.7 °C 29.78in /  1008.4hPa Calm     77% 0.00in /  0mm
20:44 65.0 °F /  18.3 °C 58.0 °F /  14.4 °C 29.78in /  1008.4hPa Calm     78% 0.00in /  0mm
20:49 64.2 °F /  17.9 °C 57.6 °F /  14.2 °C 29.77in /  1008hPa Calm     79% 0.00in /  0mm
20:54 63.6 °F /  17.6 °C 57.7 °F /  14.3 °C 29.78in /  1008.4hPa Calm     81% 0.00in /  0mm
20:59 63.1 °F /  17.3 °C 57.5 °F /  14.2 °C 29.78in /  1008.4hPa Calm     82% 0.00in /  0mm
21:04 62.7 °F /  17.1 °C 57.5 °F /  14.2 °C 29.78in /  1008.4hPa Calm     83% 0.00in /  0mm
21:09 62.5 °F /  16.9 °C 57.3 °F /  14.1 °C 29.78in /  1008.4hPa Calm     83% 0.00in /  0mm
21:14 62.3 °F /  16.8 °C 57.4 °F /  14.1 °C 29.78in /  1008.4hPa Calm     84% 0.00in /  0mm
21:19 62.0 °F /  16.7 °C 57.1 °F /  13.9 °C 29.78in /  1008.4hPa Calm     84% 0.00in /  0mm
21:24 61.7 °F /  16.5 °C 57.1 °F /  13.9 °C 29.79in /  1008.7hPa Calm     85% 0.00in /  0mm
21:29 61.6 °F /  16.4 °C 57.1 °F /  13.9 °C 29.79in /  1008.7hPa Calm     85% 0.00in /  0mm
21:34 61.6 °F /  16.4 °C 57.4 °F /  14.1 °C 29.79in /  1008.7hPa Calm     86% 0.00in /  0mm
21:39 61.7 °F /  16.5 °C 57.8 °F /  14.3 °C 29.79in /  1008.7hPa Calm     87% 0.00in /  0mm
21:44 61.9 °F /  16.6 °C 58.0 °F /  14.4 °C 29.79in /  1008.7hPa Calm     87% 0.00in /  0mm
21:49 62.1 °F /  16.7 °C 58.5 °F /  14.7 °C 29.79in /  1008.7hPa Calm     88% 0.00in /  0mm
21:59 62.5 °F /  16.9 °C 58.9 °F /  14.9 °C 29.80in /  1009hPa Calm   2.0mph /  3.2km/h 88% 0.00in /  0mm
22:04 62.9 °F /  17.2 °C 59.3 °F /  15.2 °C 29.79in /  1008.7hPa Calm   5.0mph /  8km/h 88% 0.00in /  0mm
22:09 63.0 °F /  17.2 °C 59.4 °F /  15.2 °C 29.80in /  1009hPa Calm   5.0mph /  8km/h 88% 0.00in /  0mm
22:14 63.1 °F /  17.3 °C 59.5 °F /  15.3 °C 29.80in /  1009hPa Calm     88% 0.00in /  0mm
22:19 62.9 °F /  17.2 °C 59.3 °F /  15.2 °C 29.80in /  1009hPa Calm     88% 0.00in /  0mm
22:24 62.6 °F /  17 °C 58.7 °F /  14.8 °C 29.80in /  1009hPa Calm     87% 0.00in /  0mm
22:34 62.2 °F /  16.8 °C 58.6 °F /  14.8 °C 29.80in /  1009hPa Calm     88% 0.00in /  0mm
22:39 61.8 °F /  16.6 °C 57.9 °F /  14.4 °C 29.80in /  1009hPa Calm     87% 0.00in /  0mm
22:44 61.5 °F /  16.4 °C 57.9 °F /  14.4 °C 29.80in /  1009hPa Calm     88% 0.00in /  0mm
22:49 61.2 °F /  16.2 °C 57.6 °F /  14.2 °C 29.81in /  1009.4hPa Calm     88% 0.00in /  0mm
22:54 61.1 °F /  16.2 °C 57.5 °F /  14.2 °C 29.81in /  1009.4hPa Calm     88% 0.00in /  0mm
22:59 60.9 °F /  16.1 °C 57.3 °F /  14.1 °C 29.81in /  1009.4hPa Calm     88% 0.00in /  0mm
23:04 60.7 °F /  15.9 °C 57.1 °F /  13.9 °C 29.81in /  1009.4hPa Calm     88% 0.00in /  0mm
23:09 60.5 °F /  15.8 °C 57.2 °F /  14 °C 29.81in /  1009.4hPa Calm   1.0mph /  1.6km/h 89% 0.00in /  0mm
23:14 60.3 °F /  15.7 °C 57.0 °F /  13.9 °C 29.81in /  1009.4hPa Calm   1.0mph /  1.6km/h 89% 0.00in /  0mm
23:19 60.2 °F /  15.7 °C 56.9 °F /  13.8 °C 29.81in /  1009.4hPa Calm     89% 0.00in /  0mm
23:24 60.2 °F /  15.7 °C 56.9 °F /  13.8 °C 29.81in /  1009.4hPa Calm     89% 0.00in /  0mm
23:29 60.3 °F /  15.7 °C 57.4 °F /  14.1 °C 29.81in /  1009.4hPa Calm     90% 0.00in /  0mm
23:34 60.5 °F /  15.8 °C 57.6 °F /  14.2 °C 29.81in /  1009.4hPa Calm   1.0mph /  1.6km/h 90% 0.00in /  0mm
23:39 60.5 °F /  15.8 °C 57.6 °F /  14.2 °C 29.81in /  1009.4hPa Calm   1.0mph /  1.6km/h 90% 0.00in /  0mm
23:44 60.5 °F /  15.8 °C 57.6 °F /  14.2 °C 29.82in /  1009.7hPa Calm   1.0mph /  1.6km/h 90% 0.00in /  0mm
23:49 60.6 °F /  15.9 °C 57.7 °F /  14.3 °C 29.82in /  1009.7hPa Calm   1.0mph /  1.6km/h 90% 0.00in /  0mm
23:54 60.4 °F /  15.8 °C 57.5 °F /  14.2 °C 29.82in /  1009.7hPa Calm     90% 0.00in /  0mm
23:59 60.3 °F /  15.7 °C 57.4 °F /  14.1 °C 29.81in /  1009.4hPa Calm     90% 0.00in /  0mm
Westford Weather
Compliments of Weather Underground

 
 
Current Radar Loop:

Copyright © WestfordWeather.net 2007-2014. All rights reserved.